Time;durP1;ratioP1;P1;durP2;ratioP2;P2;SDS_P1;SDS_P2;PMS_P1;PMS_P2;Temp;Humidity;BMP_temperature;BMP_pressure;BME280_temperature;BME280_humidity;BME280_pressure;Samples;Min_cycle;Max_cycle;Signal;HPM_P1;HPM_P2
2022/08/23 00:01:16;;;;;;;7.32;3.65;;;21.60;99.90;;;;;;5054805;28;20212;-47
2022/08/23 00:03:42;;;;;;;8.05;3.25;;;21.60;99.90;;;;;;5054446;28;20186;-47
2022/08/23 00:06:09;;;;;;;7.65;3.63;;;21.50;99.90;;;;;;5054099;28;20209;-47
2022/08/23 00:08:36;;;;;;;10.02;3.42;;;21.50;99.90;;;;;;5054767;28;20246;-45
2022/08/23 00:11:02;;;;;;;8.02;3.30;;;21.40;99.90;;;;;;5054659;28;20170;-46
2022/08/23 00:13:28;;;;;;;7.63;3.45;;;21.40;99.90;;;;;;5054202;28;20210;-48
2022/08/23 00:15:54;;;;;;;4.13;3.00;;;21.30;99.90;;;;;;5054147;28;20247;-45
2022/08/23 00:18:20;;;;;;;7.13;3.88;;;21.30;99.90;;;;;;5054246;28;20162;-48
2022/08/23 00:20:46;;;;;;;10.60;3.95;;;21.30;99.90;;;;;;5054248;28;20534;-48
2022/08/23 00:23:12;;;;;;;6.00;3.08;;;21.30;99.90;;;;;;5052901;28;20175;-48
2022/08/23 00:25:38;;;;;;;6.03;2.97;;;21.10;99.90;;;;;;5054073;28;20182;-48
2022/08/23 00:28:04;;;;;;;6.05;3.13;;;21.10;99.90;;;;;;5054735;28;20174;-45
2022/08/23 00:30:30;;;;;;;5.20;2.97;;;21.10;99.90;;;;;;5054299;28;20166;-45
2022/08/23 00:32:56;;;;;;;5.78;3.20;;;21.00;99.90;;;;;;5052965;28;20622;-45
2022/08/23 00:35:22;;;;;;;5.72;2.72;;;21.00;99.90;;;;;;5053893;28;20290;-45
2022/08/23 00:37:48;;;;;;;8.45;3.40;;;20.90;99.90;;;;;;5054168;28;20265;-45
2022/08/23 00:40:18;;;;;;;6.45;3.95;;;20.90;99.90;;;;;;5053834;28;20194;-45
2022/08/23 00:48:30;;;;;;;6.00;3.80;;;20.50;99.90;;;;;;5053752;28;20173;-53
2022/08/23 00:51:29;;;;;;;8.57;3.90;;;20.50;99.90;;;;;;5053736;28;20165;-53
2022/08/23 00:54:00;;;;;;;8.68;4.10;;;20.60;99.90;;;;;;5053542;28;20256;-53
2022/08/23 00:56:30;;;;;;;7.57;3.60;;;20.40;99.90;;;;;;5053395;28;20684;-52
2022/08/23 00:58:56;;;;;;;8.65;3.90;;;20.40;99.90;;;;;;5053536;28;20193;-51
2022/08/23 01:01:22;;;;;;;9.23;3.97;;;20.40;99.90;;;;;;5053481;28;20195;-53
2022/08/23 01:03:57;;;;;;;8.00;4.32;;;20.50;99.90;;;;;;5053303;28;20653;-53
2022/08/23 01:06:29;;;;;;;8.82;4.55;;;20.50;99.90;;;;;;5053317;28;20170;-54
2022/08/23 01:09:01;;;;;;;13.05;3.88;;;20.50;99.90;;;;;;5053368;28;20192;-52
2022/08/23 01:11:33;;;;;;;11.68;4.18;;;20.50;99.90;;;;;;5053281;28;20169;-50
2022/08/23 01:14:09;;;;;;;8.00;4.13;;;20.40;99.90;;;;;;5053028;28;20264;-51
2022/08/23 01:16:53;;;;;;;7.13;3.88;;;20.50;99.90;;;;;;5053147;28;20584;-46
2022/08/23 01:19:34;;;;;;;7.13;4.00;;;20.40;99.90;;;;;;5053093;28;20172;-46
2022/08/23 01:22:11;;;;;;;8.27;3.92;;;20.30;99.90;;;;;;5053037;28;20194;-49
2022/08/23 01:24:38;;;;;;;10.05;4.50;;;20.20;99.90;;;;;;5052962;28;20167;-48
2022/08/23 01:27:04;;;;;;;8.30;4.45;;;20.10;99.90;;;;;;5053334;28;20158;-53
2022/08/23 01:29:30;;;;;;;8.27;4.13;;;20.00;99.90;;;;;;5053249;28;20221;-48
2022/08/23 01:31:56;;;;;;;7.22;4.22;;;19.80;99.90;;;;;;5052744;28;20192;-49
2022/08/23 01:34:27;;;;;;;10.60;4.15;;;19.90;99.90;;;;;;5053072;28;20175;-47
2022/08/23 01:36:55;;;;;;;9.90;4.28;;;20.00;99.90;;;;;;5052660;28;20206;-47
2022/08/23 01:39:21;;;;;;;13.35;4.90;;;20.00;99.90;;;;;;5052775;28;20162;-45
2022/08/23 01:41:46;;;;;;;16.33;4.57;;;19.90;99.90;;;;;;5051399;28;20178;-49
2022/08/23 01:44:13;;;;;;;11.68;4.47;;;20.00;99.90;;;;;;5052424;28;20499;-46
2022/08/23 01:46:42;;;;;;;7.05;4.22;;;19.90;99.90;;;;;;5052577;28;20620;-49
2022/08/23 01:49:08;;;;;;;10.63;4.50;;;19.90;99.90;;;;;;5052474;28;20166;-49
2022/08/23 01:51:33;;;;;;;9.93;4.38;;;19.90;99.90;;;;;;5052861;28;20166;-52
2022/08/23 01:53:59;;;;;;;11.98;5.15;;;20.00;99.90;;;;;;5052666;28;20163;-53
2022/08/23 01:56:25;;;;;;;15.15;5.30;;;19.80;99.90;;;;;;5052338;28;20574;-51
2022/08/23 01:58:50;;;;;;;18.00;4.50;;;19.70;99.90;;;;;;5052665;28;20173;-48
2022/08/23 02:01:17;;;;;;;15.70;4.85;;;19.70;99.90;;;;;;5052352;28;20623;-48
2022/08/23 02:03:44;;;;;;;22.23;4.63;;;19.80;99.90;;;;;;5052582;28;20175;-48
2022/08/23 02:06:10;;;;;;;20.45;5.00;;;19.70;99.90;;;;;;5052246;28;20638;-51
2022/08/23 02:11:22;;;;;;;22.35;5.60;;;19.50;99.90;;;;;;5052435;28;20178;-44
2022/08/23 02:13:50;;;;;;;16.00;5.18;;;19.50;99.90;;;;;;5051949;28;20617;-45
2022/08/23 02:16:28;;;;;;;21.80;5.28;;;19.40;99.90;;;;;;5052023;28;20210;-45
2022/08/23 02:18:55;;;;;;;12.15;4.40;;;19.60;99.90;;;;;;5052043;28;20158;-45
2022/08/23 02:21:21;;;;;;;21.17;5.53;;;19.50;99.90;;;;;;5052212;28;20174;-45
2022/08/23 02:23:47;;;;;;;23.73;5.50;;;19.60;99.90;;;;;;5052158;28;20166;-47
2022/08/23 02:26:14;;;;;;;20.33;5.63;;;19.70;99.90;;;;;;5052148;28;20174;-45
2022/08/23 02:28:39;;;;;;;14.80;5.13;;;19.60;99.90;;;;;;5051920;28;20167;-46
2022/08/23 02:31:05;;;;;;;20.90;6.07;;;19.60;99.90;;;;;;5052065;28;20179;-47
2022/08/23 02:33:31;;;;;;;22.63;5.20;;;19.70;99.90;;;;;;5052432;28;20195;-51
2022/08/23 02:35:57;;;;;;;16.60;4.72;;;19.70;99.90;;;;;;5051743;28;20588;-50
2022/08/23 02:38:22;;;;;;;15.95;4.57;;;19.50;99.90;;;;;;5051864;28;20167;-46
2022/08/23 02:40:48;;;;;;;22.15;6.18;;;19.50;99.90;;;;;;5051884;28;20249;-45
2022/08/23 02:43:14;;;;;;;12.65;4.28;;;19.50;99.90;;;;;;5051840;28;20198;-45
2022/08/23 02:45:40;;;;;;;13.32;5.10;;;19.40;99.90;;;;;;5051829;28;20178;-46
2022/08/23 02:48:07;;;;;;;15.10;4.28;;;19.40;99.90;;;;;;5051954;28;20166;-47
2022/08/23 02:50:33;;;;;;;10.13;4.43;;;19.30;99.90;;;;;;5052023;28;20684;-47
2022/08/23 02:52:59;;;;;;;14.63;5.10;;;19.20;99.90;;;;;;5051961;28;20159;-49
2022/08/23 02:55:26;;;;;;;16.98;4.75;;;19.20;99.90;;;;;;5053155;28;20217;-46
2022/08/23 02:57:51;;;;;;;18.65;5.47;;;19.10;99.90;;;;;;5055698;28;20223;-45
2022/08/23 03:00:18;;;;;;;10.50;4.47;;;19.30;99.90;;;;;;5055295;28;20262;-47
2022/08/23 03:02:44;;;;;;;14.02;3.95;;;19.30;99.90;;;;;;5055496;28;20174;-45
2022/08/23 03:05:12;;;;;;;16.40;5.03;;;19.20;99.90;;;;;;5055600;28;20159;-48
2022/08/23 03:07:38;;;;;;;13.63;4.80;;;19.20;99.90;;;;;;5055898;28;20179;-46
2022/08/23 03:10:05;;;;;;;20.50;5.45;;;19.10;99.90;;;;;;5055948;28;20712;-46
2022/08/23 03:12:32;;;;;;;19.55;4.60;;;19.20;99.90;;;;;;5055769;28;20217;-46
2022/08/23 03:14:58;;;;;;;16.55;4.93;;;19.20;99.90;;;;;;5055403;28;20170;-45
2022/08/23 03:17:24;;;;;;;15.65;4.40;;;19.10;99.90;;;;;;5055676;28;20541;-45
2022/08/23 03:19:51;;;;;;;12.57;5.22;;;19.10;99.90;;;;;;5055341;28;20642;-46
2022/08/23 03:22:17;;;;;;;13.43;5.00;;;19.10;99.90;;;;;;5055525;28;20253;-46
2022/08/23 03:24:43;;;;;;;12.13;4.97;;;19.10;99.90;;;;;;5055504;28;20167;-47
2022/08/23 03:27:10;;;;;;;17.63;5.05;;;19.00;99.90;;;;;;5055477;28;20166;-48
2022/08/23 03:29:36;;;;;;;15.73;4.82;;;19.00;99.90;;;;;;5055286;28;20646;-47
2022/08/23 03:32:03;;;;;;;13.77;5.45;;;19.00;99.90;;;;;;5055406;28;20249;-45
2022/08/23 03:34:30;;;;;;;13.35;4.70;;;19.00;99.90;;;;;;5055389;28;20171;-45
2022/08/23 03:36:56;;;;;;;11.15;4.80;;;19.00;99.90;;;;;;5055179;28;20305;-45
2022/08/23 03:39:21;;;;;;;12.95;4.30;;;19.00;99.90;;;;;;5054970;28;20198;-47
2022/08/23 03:41:47;;;;;;;12.70;4.65;;;19.00;99.90;;;;;;5054716;28;20194;-47
2022/08/23 03:44:13;;;;;;;16.15;5.03;;;19.00;99.90;;;;;;5054722;28;20257;-45
2022/08/23 03:46:39;;;;;;;21.13;5.28;;;18.90;99.90;;;;;;5054735;28;20220;-47
2022/08/23 03:49:05;;;;;;;16.90;5.15;;;18.90;99.90;;;;;;5054586;28;20179;-50
2022/08/23 03:51:33;;;;;;;12.68;5.18;;;18.90;99.90;;;;;;5054969;28;20163;-46
2022/08/23 03:53:59;;;;;;;14.07;4.45;;;18.80;99.90;;;;;;5054812;28;20185;-46
2022/08/23 03:56:28;;;;;;;18.40;4.95;;;18.80;99.90;;;;;;5054524;28;20282;-48
2022/08/23 03:58:55;;;;;;;16.95;4.82;;;18.70;99.90;;;;;;5054676;28;20166;-49
2022/08/23 04:01:22;;;;;;;14.38;5.07;;;18.60;99.90;;;;;;5054791;28;20165;-48
2022/08/23 04:03:47;;;;;;;15.50;5.53;;;18.60;99.90;;;;;;5054800;28;20217;-50
2022/08/23 04:06:14;;;;;;;14.05;4.38;;;18.70;99.90;;;;;;5054520;28;20171;-47
2022/08/23 04:08:40;;;;;;;12.88;4.32;;;18.60;99.90;;;;;;5054390;28;20182;-50
2022/08/23 04:11:06;;;;;;;20.15;5.13;;;18.50;99.90;;;;;;5054443;28;20166;-47
2022/08/23 04:13:33;;;;;;;15.10;4.95;;;18.50;99.90;;;;;;5054698;28;20218;-47
2022/08/23 04:16:01;;;;;;;18.17;5.45;;;18.50;99.90;;;;;;5054746;28;20214;-50
2022/08/23 04:18:29;;;;;;;25.30;5.55;;;18.60;99.90;;;;;;5054514;28;20174;-50
2022/08/23 04:20:55;;;;;;;16.20;5.60;;;18.50;99.90;;;;;;5054135;28;20170;-49
2022/08/23 04:23:20;;;;;;;22.55;5.20;;;18.30;99.90;;;;;;5054387;28;20217;-52
2022/08/23 04:25:46;;;;;;;17.35;5.40;;;18.30;99.90;;;;;;5054136;28;20163;-51
2022/08/23 04:28:11;;;;;;;16.65;5.63;;;18.40;99.90;;;;;;5054092;28;20181;-53
2022/08/23 04:30:37;;;;;;;16.50;5.20;;;18.30;99.90;;;;;;5054067;28;20162;-51
2022/08/23 04:33:03;;;;;;;21.40;6.15;;;18.30;99.90;;;;;;5054356;28;20681;-52
2022/08/23 04:35:29;;;;;;;16.20;5.40;;;18.30;99.90;;;;;;5052837;28;20210;-52
2022/08/23 04:37:54;;;;;;;15.10;4.78;;;18.40;99.90;;;;;;5053920;28;20181;-52
2022/08/23 04:43:07;;;;;;;14.18;4.93;;;18.20;99.90;;;;;;5053906;28;20573;-50
2022/08/23 04:45:33;;;;;;;16.42;5.05;;;18.30;99.90;;;;;;5054351;28;20190;-52
2022/08/23 04:47:59;;;;;;;12.88;4.78;;;18.30;99.90;;;;;;5054094;28;20659;-53
2022/08/23 04:50:25;;;;;;;9.50;5.50;;;18.40;99.90;;;;;;5053966;28;20214;-52
2022/08/23 04:52:50;;;;;;;15.65;5.90;;;18.30;99.90;;;;;;5053532;28;20167;-52
2022/08/23 04:55:16;;;;;;;13.50;5.47;;;18.30;99.90;;;;;;5053530;28;20555;-51
2022/08/23 04:57:42;;;;;;;11.45;5.40;;;18.40;99.90;;;;;;5053453;28;20179;-50
2022/08/23 05:00:11;;;;;;;10.25;5.20;;;18.40;99.90;;;;;;5053582;28;20163;-50
2022/08/23 05:02:38;;;;;;;9.75;5.40;;;18.40;99.90;;;;;;5053500;28;20181;-50
2022/08/23 05:05:05;;;;;;;17.02;5.18;;;18.40;99.90;;;;;;5053370;28;20634;-51
2022/08/23 05:07:30;;;;;;;8.18;4.95;;;18.30;99.90;;;;;;5053670;28;20179;-45
2022/08/23 05:09:56;;;;;;;8.93;5.18;;;18.30;99.90;;;;;;5053496;28;20170;-45
2022/08/23 05:12:22;;;;;;;15.45;5.60;;;18.40;99.90;;;;;;5053122;28;20678;-45
2022/08/23 05:14:48;;;;;;;9.63;5.43;;;18.40;99.90;;;;;;5053122;28;20209;-47
2022/08/23 05:17:13;;;;;;;10.88;5.22;;;18.40;99.90;;;;;;5053064;28;20264;-47
2022/08/23 05:19:39;;;;;;;10.35;5.13;;;18.40;99.90;;;;;;5052851;28;20158;-46
2022/08/23 05:22:04;;;;;;;14.60;5.95;;;18.40;99.90;;;;;;5053229;28;20573;-45
2022/08/23 05:24:30;;;;;;;12.02;5.60;;;18.60;99.90;;;;;;5053402;28;20167;-45
2022/08/23 05:26:56;;;;;;;11.32;5.13;;;18.70;99.90;;;;;;5051610;28;20220;-45
2022/08/23 05:29:21;;;;;;;10.75;5.95;;;18.70;99.90;;;;;;5052827;28;20185;-46
2022/08/23 05:31:47;;;;;;;17.42;5.63;;;18.70;99.90;;;;;;5052787;28;20167;-45
2022/08/23 05:34:13;;;;;;;29.55;6.75;;;18.80;99.90;;;;;;5053074;28;20568;-45
2022/08/23 05:36:38;;;;;;;7.53;5.53;;;18.90;99.90;;;;;;5052585;28;20206;-46
2022/08/23 05:39:05;;;;;;;13.38;5.68;;;19.00;99.90;;;;;;5052559;28;20201;-45
2022/08/23 05:41:30;;;;;;;15.90;5.82;;;19.00;99.90;;;;;;5053097;28;20190;-46
2022/08/23 05:43:56;;;;;;;17.50;6.03;;;19.10;99.90;;;;;;5052836;28;20260;-45
2022/08/23 05:46:22;;;;;;;11.23;5.13;;;19.10;99.90;;;;;;5052667;28;20236;-48
2022/08/23 05:48:50;;;;;;;6.20;5.47;;;19.10;99.90;;;;;;5052483;28;20228;-47
2022/08/23 05:51:24;;;;;;;11.70;6.40;;;19.10;99.90;;;;;;5052524;28;20166;-49
2022/08/23 05:53:51;;;;;;;9.73;5.90;;;19.20;99.90;;;;;;5052409;28;20527;-45
2022/08/23 05:56:25;;;;;;;10.65;6.18;;;19.50;99.90;;;;;;5051114;28;20696;-45
2022/08/23 05:58:53;;;;;;;12.10;6.35;;;19.60;99.90;;;;;;5052327;28;20216;-48
2022/08/23 06:01:21;;;;;;;10.48;6.35;;;19.70;99.90;;;;;;5052552;28;20198;-45
2022/08/23 06:03:47;;;;;;;10.43;5.93;;;19.80;99.90;;;;;;5052303;28;20216;-52
2022/08/23 06:06:14;;;;;;;6.63;5.35;;;19.90;99.90;;;;;;5052145;28;20170;-52
2022/08/23 06:08:41;;;;;;;10.55;5.82;;;19.90;99.90;;;;;;5052151;28;20159;-50
2022/08/23 06:11:13;;;;;;;8.13;5.70;;;20.00;99.90;;;;;;5052153;28;20167;-51
2022/08/23 06:13:42;;;;;;;14.52;6.13;;;20.00;99.90;;;;;;5051998;28;20233;-52
2022/08/23 06:16:09;;;;;;;10.43;6.10;;;20.00;99.90;;;;;;5052212;28;20214;-49
2022/08/23 06:18:35;;;;;;;9.00;6.32;;;19.90;99.90;;;;;;5052291;28;20201;-52
2022/08/23 06:21:07;;;;;;;10.15;5.88;;;19.90;99.90;;;;;;5052640;28;20167;-52
2022/08/23 06:23:34;;;;;;;9.15;5.70;;;20.00;99.90;;;;;;5052214;28;20231;-48
2022/08/23 06:26:00;;;;;;;9.95;7.22;;;19.90;99.90;;;;;;5050986;28;20641;-52
2022/08/23 06:28:28;;;;;;;20.10;6.78;;;20.00;99.90;;;;;;5052145;28;20170;-52
2022/08/23 06:30:55;;;;;;;20.55;6.90;;;20.00;99.90;;;;;;5051071;28;20163;-52
2022/08/23 06:33:22;;;;;;;22.50;7.18;;;20.10;99.90;;;;;;5051904;28;20167;-50
2022/08/23 06:35:48;;;;;;;17.55;6.70;;;20.00;99.90;;;;;;5051799;28;20229;-47
2022/08/23 06:38:14;;;;;;;14.40;6.60;;;20.10;99.90;;;;;;5052196;28;20171;-49
2022/08/23 06:40:39;;;;;;;9.02;6.25;;;20.20;99.90;;;;;;5051662;28;20249;-46
2022/08/23 06:43:05;;;;;;;10.80;5.68;;;20.20;99.90;;;;;;5051695;28;20182;-48
2022/08/23 06:45:32;;;;;;;9.43;6.13;;;20.30;99.90;;;;;;5050842;28;20239;-52
2022/08/23 06:47:58;;;;;;;13.38;6.68;;;20.30;99.90;;;;;;5050668;28;20177;-51
2022/08/23 06:50:23;;;;;;;12.35;5.35;;;20.40;99.90;;;;;;5051573;28;20170;-46
2022/08/23 06:52:50;;;;;;;14.75;6.45;;;20.50;99.90;;;;;;5051630;28;20184;-47
2022/08/23 06:55:15;;;;;;;12.00;5.60;;;20.70;99.90;;;;;;5051479;28;20643;-49
2022/08/23 06:57:41;;;;;;;10.35;5.60;;;20.80;99.90;;;;;;5051562;28;20178;-46
2022/08/23 07:00:09;;;;;;;11.80;5.45;;;21.00;99.90;;;;;;5051801;28;20167;-46
2022/08/23 07:02:35;;;;;;;12.40;5.30;;;21.30;99.90;;;;;;5051812;28;20541;-48
2022/08/23 07:05:01;;;;;;;12.25;4.90;;;21.60;99.90;;;;;;5051843;28;20171;-47
2022/08/23 07:07:26;;;;;;;12.98;4.90;;;21.70;99.90;;;;;;5051458;28;20163;-48
2022/08/23 07:09:52;;;;;;;14.73;5.28;;;21.90;99.90;;;;;;5050175;28;20166;-47
2022/08/23 07:12:19;;;;;;;14.88;4.95;;;21.90;99.90;;;;;;5051462;28;20689;-48
2022/08/23 07:14:44;;;;;;;8.70;4.25;;;22.20;99.90;;;;;;5051886;28;20182;-50
2022/08/23 07:17:11;;;;;;;9.80;4.30;;;22.30;99.90;;;;;;5050361;28;20209;-49
2022/08/23 07:19:37;;;;;;;10.73;5.07;;;22.50;99.90;;;;;;5051447;28;20166;-50
2022/08/23 07:22:04;;;;;;;11.48;3.90;;;22.60;99.90;;;;;;5051379;28;20181;-51
2022/08/23 07:24:31;;;;;;;9.55;3.95;;;22.70;99.90;;;;;;5051748;28;20209;-50
2022/08/23 07:26:57;;;;;;;9.95;3.88;;;22.80;99.90;;;;;;5051686;28;20178;-46
2022/08/23 07:29:23;;;;;;;10.45;3.92;;;22.80;99.90;;;;;;5051408;28;20189;-45
2022/08/23 07:31:52;;;;;;;11.77;3.65;;;22.80;99.90;;;;;;5051370;28;20646;-45
2022/08/23 07:34:19;;;;;;;11.77;2.92;;;22.90;99.90;;;;;;5051486;28;20170;-50
2022/08/23 07:36:45;;;;;;;12.40;4.60;;;23.10;99.90;;;;;;5051144;28;20259;-49
2022/08/23 07:39:12;;;;;;;10.75;3.65;;;23.10;99.90;;;;;;5051253;28;20159;-51
2022/08/23 07:41:38;;;;;;;9.18;3.30;;;23.30;99.90;;;;;;5053050;28;20524;-51
2022/08/23 07:44:07;;;;;;;9.35;3.75;;;23.30;99.90;;;;;;5054938;28;20162;-51
2022/08/23 07:46:34;;;;;;;10.18;4.30;;;23.60;99.90;;;;;;5055092;28;20335;-52
2022/08/23 07:49:01;;;;;;;12.52;4.20;;;23.80;99.90;;;;;;5055175;28;20496;-49
2022/08/23 07:51:29;;;;;;;7.40;3.90;;;23.90;99.90;;;;;;5054839;28;20197;-50
2022/08/23 07:53:54;;;;;;;19.38;3.90;;;23.80;99.90;;;;;;5054733;28;20247;-52
2022/08/23 07:56:20;;;;;;;11.38;3.90;;;23.90;99.90;;;;;;5054581;28;20285;-51
2022/08/23 07:58:46;;;;;;;7.78;3.40;;;24.10;99.90;;;;;;5054861;28;20179;-50
2022/08/23 08:01:22;;;;;;;9.68;3.67;;;24.20;99.90;;;;;;5054827;28;20574;-45
2022/08/23 08:03:53;;;;;;;9.50;3.42;;;24.10;99.90;;;;;;5054548;28;20223;-45
2022/08/23 08:06:45;;;;;;;11.40;3.72;;;24.10;99.90;;;;;;5054761;28;20170;-45
2022/08/23 08:09:12;;;;;;;9.63;3.70;;;24.20;99.90;;;;;;5051519;28;20178;-45
2022/08/23 08:11:42;;;;;;;13.70;4.18;;;24.40;99.90;;;;;;5054450;28;20245;-45
2022/08/23 08:14:09;;;;;;;12.20;4.63;;;24.50;99.90;;;;;;5054645;28;20187;-44
2022/08/23 08:16:41;;;;;;;6.38;3.38;;;24.50;99.90;;;;;;5054520;28;20210;-46
2022/08/23 08:19:09;;;;;;;9.13;3.75;;;24.70;99.90;;;;;;5054377;28;20159;-45
2022/08/23 08:21:36;;;;;;;7.95;4.95;;;24.80;99.90;;;;;;5054194;28;20516;-45
2022/08/23 08:24:03;;;;;;;14.93;4.13;;;24.70;99.90;;;;;;5054209;28;20178;-45
2022/08/23 08:26:29;;;;;;;16.35;4.28;;;24.80;99.90;;;;;;5053207;28;20182;-45
2022/08/23 08:28:56;;;;;;;11.43;3.97;;;24.80;99.90;;;;;;5054028;28;20166;-45
2022/08/23 08:31:23;;;;;;;10.32;3.85;;;25.00;99.90;;;;;;5054068;28;20721;-45
2022/08/23 08:33:49;;;;;;;9.48;3.63;;;25.10;99.90;;;;;;5054008;28;20246;-45
2022/08/23 08:36:38;;;;;;;10.48;4.50;;;25.10;99.90;;;;;;5054068;28;20331;-48
2022/08/23 08:39:06;;;;;;;10.05;4.45;;;25.20;99.90;;;;;;5053905;28;20225;-44
2022/08/23 08:41:43;;;;;;;14.30;4.00;;;25.30;99.90;;;;;;5054058;28;20209;-44
2022/08/23 08:44:18;;;;;;;9.27;3.65;;;25.50;99.90;;;;;;5053844;28;20223;-47
2022/08/23 08:46:48;;;;;;;10.52;3.97;;;25.60;99.90;;;;;;5054016;28;20166;-45
2022/08/23 08:49:35;;;;;;;8.18;3.33;;;25.50;99.90;;;;;;5052442;28;20163;-46
2022/08/23 08:52:15;;;;;;;11.38;4.35;;;25.60;99.90;;;;;;5054013;28;20201;-46
2022/08/23 08:54:42;;;;;;;12.07;3.50;;;25.70;99.90;;;;;;5053211;28;20206;-48
2022/08/23 08:57:14;;;;;;;11.00;3.92;;;25.80;99.90;;;;;;5053511;28;20204;-45
2022/08/23 08:59:51;;;;;;;11.23;3.92;;;25.80;99.90;;;;;;5052262;28;20174;-52
2022/08/23 09:02:19;;;;;;;5.60;3.70;;;26.00;99.90;;;;;;5053476;28;20177;-51
2022/08/23 09:04:46;;;;;;;11.82;3.30;;;26.10;99.90;;;;;;5053484;28;20177;-51
2022/08/23 09:07:48;;;;;;;9.30;2.97;;;26.30;99.90;;;;;;5053443;28;20649;-52
2022/08/23 09:10:42;;;;;;;12.43;3.00;;;26.20;99.90;;;;;;5053361;28;20573;-50
2022/08/23 09:13:24;;;;;;;9.57;3.33;;;26.20;99.90;;;;;;5053148;28;20214;-49
2022/08/23 09:15:55;;;;;;;6.60;3.20;;;26.30;99.90;;;;;;5053097;28;20233;-52
2022/08/23 09:18:23;;;;;;;10.95;3.28;;;26.50;99.90;;;;;;5053428;28;20201;-51
2022/08/23 09:20:52;;;;;;;8.65;3.20;;;26.40;99.90;;;;;;5053100;28;20202;-51
2022/08/23 09:23:26;;;;;;;8.95;3.20;;;26.40;99.90;;;;;;5053020;28;20568;-51
2022/08/23 09:25:53;;;;;;;12.27;3.65;;;26.40;99.90;;;;;;5052937;28;20166;-52
2022/08/23 09:28:19;;;;;;;8.32;3.45;;;26.70;99.90;;;;;;5053184;28;20220;-51
2022/08/23 09:30:53;;;;;;;6.80;3.22;;;26.70;99.90;;;;;;5052948;28;20170;-51
2022/08/23 09:33:22;;;;;;;5.55;3.17;;;26.80;99.90;;;;;;5053086;28;20240;-50
2022/08/23 09:36:20;;;;;;;11.45;3.53;;;26.90;99.90;;;;;;5053093;28;20206;-46
2022/08/23 09:38:55;;;;;;;5.82;2.97;;;27.10;99.90;;;;;;5053030;28;20193;-45
2022/08/23 09:41:35;;;;;;;8.10;3.53;;;27.30;99.90;;;;;;5052952;28;20173;-51
2022/08/23 09:44:03;;;;;;;9.05;3.05;;;27.30;99.90;;;;;;5053080;28;20296;-52
2022/08/23 09:46:34;;;;;;;6.78;3.22;;;27.40;99.90;;;;;;5053208;28;20274;-52
2022/08/23 09:49:24;;;;;;;7.30;2.95;;;27.40;99.90;;;;;;5052952;28;20158;-45
2022/08/23 09:51:51;;;;;;;9.77;2.92;;;27.30;99.90;;;;;;5052785;28;20255;-52
2022/08/23 09:54:30;;;;;;;7.65;3.17;;;27.40;99.90;;;;;;5052500;28;20760;-52
2022/08/23 09:57:00;;;;;;;5.97;2.70;;;27.50;99.90;;;;;;5052903;28;20241;-50
2022/08/23 09:59:25;;;;;;;7.00;2.53;;;27.50;99.90;;;;;;5052638;28;20260;-52
2022/08/23 10:01:56;;;;;;;4.43;2.22;;;27.60;99.90;;;;;;5052335;28;20237;-51
2022/08/23 10:04:29;;;;;;;8.25;3.45;;;27.70;99.90;;;;;;5052200;28;20165;-53
2022/08/23 10:06:56;;;;;;;6.97;2.63;;;27.80;99.90;;;;;;5052213;28;20169;-53
2022/08/23 10:09:21;;;;;;;6.85;2.42;;;27.90;99.90;;;;;;5052216;28;20190;-47
2022/08/23 10:11:47;;;;;;;6.18;2.63;;;28.00;99.90;;;;;;5051918;28;20212;-47
2022/08/23 10:14:16;;;;;;;6.15;2.58;;;28.00;99.90;;;;;;5052172;28;20252;-52
2022/08/23 10:17:13;;;;;;;7.78;2.97;;;28.30;99.90;;;;;;5051920;28;20599;-44
2022/08/23 10:19:59;;;;;;;6.18;2.50;;;28.50;99.90;;;;;;5050862;28;20196;-48
2022/08/23 10:22:30;;;;;;;6.18;2.95;;;28.50;99.90;;;;;;5051720;28;20256;-44
2022/08/23 10:25:04;;;;;;;7.18;3.35;;;28.30;99.90;;;;;;5050666;28;20174;-45
2022/08/23 10:31:19;;;;;;;3.53;2.20;;;28.20;99.90;;;;;;5051970;28;20208;-51
2022/08/23 10:34:03;;;;;;;7.60;3.00;;;28.50;99.90;;;;;;5051938;28;20165;-50
2022/08/23 10:36:32;;;;;;;7.20;2.65;;;28.50;99.90;;;;;;5052344;28;20568;-52
2022/08/23 10:39:02;;;;;;;11.05;3.35;;;28.40;99.90;;;;;;5052165;28;20268;-52
2022/08/23 10:41:45;;;;;;;7.80;3.08;;;28.40;99.90;;;;;;5052107;28;20178;-53
2022/08/23 10:44:34;;;;;;;5.25;3.28;;;28.50;99.90;;;;;;5051707;28;20641;-52
2022/08/23 10:47:26;;;;;;;5.97;2.50;;;28.80;99.90;;;;;;5052362;28;20170;-51
2022/08/23 10:49:52;;;;;;;8.05;2.80;;;28.80;99.90;;;;;;5051868;28;20174;-51
2022/08/23 10:52:25;;;;;;;5.20;2.55;;;28.80;99.90;;;;;;5051363;28;20162;-51
2022/08/23 10:55:05;;;;;;;6.03;2.65;;;29.00;99.90;;;;;;5051803;28;20598;-51
2022/08/23 10:57:40;;;;;;;7.68;3.33;;;28.90;99.90;;;;;;5051947;28;20209;-44
2022/08/23 11:00:24;;;;;;;5.15;2.83;;;28.90;99.90;;;;;;5051661;28;20197;-46
2022/08/23 11:03:04;;;;;;;6.60;2.70;;;29.10;99.90;;;;;;5051572;28;20169;-45
2022/08/23 11:05:34;;;;;;;7.80;2.53;;;29.10;99.90;;;;;;5052137;28;20173;-47
2022/08/23 11:08:04;;;;;;;4.95;2.50;;;28.90;99.90;;;;;;5050632;28;20625;-45
2022/08/23 11:10:38;;;;;;;5.15;2.72;;;29.10;99.90;;;;;;5051905;28;20211;-48
2022/08/23 11:13:23;;;;;;;4.65;2.50;;;29.30;99.90;;;;;;5051332;28;20294;-45
2022/08/23 11:15:57;;;;;;;6.20;2.47;;;29.20;99.90;;;;;;5051939;28;20327;-47
2022/08/23 11:18:44;;;;;;;9.77;2.40;;;29.50;99.90;;;;;;5055431;28;20178;-45
2022/08/23 11:21:40;;;;;;;8.38;2.50;;;29.50;99.90;;;;;;5055563;28;20177;-45
2022/08/23 11:24:12;;;;;;;6.78;3.08;;;29.10;99.90;;;;;;5036340;28;20229;-45
2022/08/23 11:26:39;;;;;;;8.05;2.78;;;28.60;99.90;;;;;;5055396;28;20166;-46
2022/08/23 11:29:05;;;;;;;6.13;2.60;;;28.40;99.90;;;;;;5054003;28;20642;-45
2022/08/23 11:31:41;;;;;;;3.20;2.28;;;28.70;99.90;;;;;;5055530;28;20180;-44
2022/08/23 11:34:22;;;;;;;7.72;2.67;;;28.50;99.90;;;;;;5055475;28;20533;-46
2022/08/23 11:37:18;;;;;;;4.78;2.50;;;28.50;99.90;;;;;;5055001;28;20210;-45
2022/08/23 11:39:59;;;;;;;4.68;2.70;;;28.50;99.90;;;;;;5055033;28;20162;-48
2022/08/23 11:42:36;;;;;;;6.40;2.28;;;28.80;99.90;;;;;;5055020;28;20170;-44
2022/08/23 11:45:19;;;;;;;4.63;2.42;;;29.20;99.90;;;;;;5054990;28;20168;-44
2022/08/23 11:47:46;;;;;;;9.88;2.40;;;29.20;99.90;;;;;;5054924;28;20220;-44
2022/08/23 11:50:14;;;;;;;4.90;2.70;;;29.40;99.90;;;;;;5053691;28;20162;-47
2022/08/23 11:53:06;;;;;;;8.85;2.53;;;29.00;99.90;;;;;;5054855;28;20170;-46
2022/08/23 11:56:02;;;;;;;2.70;2.13;;;28.70;99.90;;;;;;5044783;28;20216;-44
2022/08/23 11:58:56;;;;;;;4.05;2.35;;;28.60;99.90;;;;;;5055067;28;20173;-47
2022/08/23 12:01:38;;;;;;;5.57;3.05;;;28.50;99.90;;;;;;5054715;28;20263;-46
2022/08/23 12:04:10;;;;;;;5.70;2.22;;;28.70;99.90;;;;;;5054861;28;20239;-45
2022/08/23 12:06:51;;;;;;;6.10;2.17;;;28.70;99.90;;;;;;5054512;28;20193;-49
2022/08/23 12:09:23;;;;;;;8.15;2.58;;;28.70;99.90;;;;;;5054782;28;20181;-51
2022/08/23 12:11:54;;;;;;;6.57;2.30;;;29.20;99.90;;;;;;5054410;28;20190;-49
2022/08/23 12:14:52;;;;;;;8.40;2.58;;;29.60;99.90;;;;;;5054706;28;20655;-48
2022/08/23 12:17:19;;;;;;;4.97;2.28;;;29.60;99.90;;;;;;5054276;28;20543;-46
2022/08/23 12:19:52;;;;;;;5.80;2.60;;;30.00;99.90;;;;;;5054656;28;20166;-50
2022/08/23 12:22:21;;;;;;;7.60;2.40;;;30.40;99.90;;;;;;5054331;28;20529;-50
2022/08/23 12:24:52;;;;;;;3.67;2.03;;;30.20;99.90;;;;;;5054184;28;20196;-52
2022/08/23 12:27:27;;;;;;;5.47;2.50;;;30.00;99.90;;;;;;5053228;28;20197;-52
2022/08/23 12:30:19;;;;;;;4.00;2.08;;;29.50;99.90;;;;;;5054051;28;20176;-52
2022/08/23 12:33:24;;;;;;;7.28;2.38;;;29.50;99.90;;;;;;5053953;28;20170;-52
2022/08/23 12:35:55;;;;;;;5.43;2.42;;;29.70;99.90;;;;;;5053955;28;20737;-51
2022/08/23 12:38:52;;;;;;;7.03;2.67;;;29.60;99.90;;;;;;5053985;28;20240;-52
2022/08/23 12:41:26;;;;;;;4.82;2.28;;;30.30;99.90;;;;;;5053861;28;20696;-52
2022/08/23 12:44:03;;;;;;;5.03;2.47;;;30.20;99.90;;;;;;5054115;28;20540;-50
2022/08/23 12:46:31;;;;;;;5.93;2.40;;;30.10;99.90;;;;;;5054019;28;20197;-53
2022/08/23 12:48:57;;;;;;;7.68;2.60;;;30.50;99.90;;;;;;5054363;28;20162;-52
2022/08/23 12:51:22;;;;;;;5.38;2.38;;;30.80;99.90;;;;;;5053774;28;20269;-52
2022/08/23 12:53:48;;;;;;;5.88;2.55;;;31.00;99.90;;;;;;5053580;28;20158;-51
2022/08/23 12:56:24;;;;;;;5.80;2.58;;;30.90;99.90;;;;;;5053550;28;20197;-52
2022/08/23 12:58:53;;;;;;;4.35;2.13;;;30.80;99.90;;;;;;5053850;28;20185;-50
2022/08/23 13:01:25;;;;;;;3.63;2.15;;;30.50;99.90;;;;;;5053563;28;20202;-47
2022/08/23 13:04:05;;;;;;;4.50;2.30;;;30.70;99.90;;;;;;5053505;28;20257;-52
2022/08/23 13:06:38;;;;;;;6.00;2.30;;;30.60;99.90;;;;;;5053509;28;20205;-52
2022/08/23 13:09:08;;;;;;;5.88;2.30;;;30.90;99.90;;;;;;5053672;28;20224;-52
2022/08/23 13:11:36;;;;;;;6.88;2.63;;;30.70;99.90;;;;;;5053411;28;20227;-46